Time;durP1;ratioP1;P1;durP2;ratioP2;P2;SDS_P1;SDS_P2;PMS_P1;PMS_P2;Temp;Humidity;BMP_temperature;BMP_pressure;BME280_temperature;BME280_humidity;BME280_pressure;Samples;Min_cycle;Max_cycle;Signal;HPM_P1;HPM_P2
2021/01/02 00:02:20;;;;;;;22.32;15.28;;;;;;;5.27;70.46;100973.83;1648152;87;21611;-64
2021/01/02 00:05:14;;;;;;;24.30;16.62;;;;;;;5.32;70.26;100977.41;1647377;87;21217;-63
2021/01/02 00:08:08;;;;;;;25.23;17.52;;;;;;;5.27;70.51;100978.19;1648673;87;21189;-63
2021/01/02 00:10:54;;;;;;;25.65;16.93;;;;;;;5.27;70.41;100991.23;1648545;87;21619;-62
2021/01/02 00:13:46;;;;;;;23.52;16.52;;;;;;;5.17;70.63;100992.36;1853155;77;22132;-60
2021/01/02 00:16:47;;;;;;;23.90;15.98;;;;;;;5.27;70.20;100998.63;1741499;80;21146;-61
2021/01/02 00:19:52;;;;;;;22.42;16.62;;;;;;;5.13;70.67;101006.59;1754138;80;21610;-61
2021/01/02 00:22:47;;;;;;;24.43;16.45;;;;;;;5.10;70.71;101010.45;1777590;80;21160;-63
2021/01/02 00:25:16;;;;;;;25.27;16.60;;;;;;;5.10;70.55;101018.28;1725102;83;21154;-62
2021/01/02 00:28:09;;;;;;;24.55;18.05;;;;;;;5.04;70.50;101016.03;1702320;83;21138;-62
2021/01/02 00:31:04;;;;;;;23.60;16.02;;;;;;;5.00;70.49;101011.59;1728475;83;21592;-62
2021/01/02 00:33:59;;;;;;;24.85;16.35;;;;;;;4.98;70.46;101023.72;1735197;81;21541;-62
2021/01/02 00:36:41;;;;;;;24.52;15.38;;;;;;;4.98;70.45;101029.34;1746030;81;21162;-62
2021/01/02 00:39:14;;;;;;;22.02;14.68;;;;;;;4.96;70.50;101034.55;1728238;83;21188;-63
2021/01/02 00:41:43;;;;;;;25.55;16.55;;;;;;;4.96;70.39;101035.85;1699860;83;21316;-62
2021/01/02 00:44:14;;;;;;;22.48;15.75;;;;;;;4.96;70.24;101044.98;1728454;83;21725;-63
2021/01/02 00:46:43;;;;;;;25.95;16.85;;;;;;;4.90;70.32;101051.37;1728265;81;21178;-62
2021/01/02 00:49:11;;;;;;;22.98;15.60;;;;;;;4.89;70.36;101056.99;1696250;84;21590;-62
2021/01/02 00:51:43;;;;;;;23.95;15.98;;;;;;;4.88;70.23;101054.36;1704616;83;21139;-62
2021/01/02 00:54:29;;;;;;;21.48;14.07;;;;;;;4.83;70.08;101052.97;1699380;83;21289;-62
2021/01/02 00:57:03;;;;;;;22.20;15.00;;;;;;;4.81;70.00;101061.59;1711380;82;21166;-62
2021/01/02 00:59:55;;;;;;;24.57;15.93;;;;;;;4.72;70.12;101067.05;1699470;84;21192;-62
2021/01/02 01:02:40;;;;;;;24.20;16.23;;;;;;;4.72;70.07;101072.70;1719157;82;21158;-62
2021/01/02 01:05:08;;;;;;;21.40;15.20;;;;;;;4.68;69.83;101076.09;1711831;84;21206;-63
2021/01/02 01:07:36;;;;;;;25.00;16.70;;;;;;;4.61;69.79;101081.59;1713303;84;21186;-62
2021/01/02 01:10:09;;;;;;;26.55;15.75;;;;;;;4.55;69.92;101083.61;1720113;82;21187;-62
2021/01/02 01:12:43;;;;;;;24.15;16.07;;;;;;;4.52;70.00;101091.80;1724204;83;21614;-62
2021/01/02 01:15:12;;;;;;;23.67;15.40;;;;;;;4.51;70.03;101099.16;1767636;80;21617;-61
2021/01/02 01:17:58;;;;;;;23.30;15.23;;;;;;;4.48;70.08;101105.16;1756805;82;21186;-62
2021/01/02 01:20:26;;;;;;;22.48;13.85;;;;;;;4.49;70.15;101097.80;1756680;82;21178;-62
2021/01/02 01:23:04;;;;;;;20.45;13.45;;;;;;;4.48;70.07;101099.95;1756497;81;21617;-61
2021/01/02 01:25:49;;;;;;;19.55;13.93;;;;;;;4.50;69.91;101102.61;1738591;82;21146;-62
2021/01/02 01:28:19;;;;;;;20.52;14.75;;;;;;;4.47;69.78;101102.09;1758800;80;21529;-61
2021/01/02 01:30:47;;;;;;;21.50;15.00;;;;;;;4.43;69.72;101102.45;1756637;82;21615;-61
2021/01/02 01:33:14;;;;;;;21.02;14.68;;;;;;;4.39;69.69;101103.22;1757132;80;21182;-62
2021/01/02 01:35:43;;;;;;;22.40;14.63;;;;;;;4.38;69.57;101103.20;1756344;82;21178;-61
2021/01/02 01:38:16;;;;;;;21.35;14.40;;;;;;;4.31;69.64;101110.86;1756495;80;21633;-62
2021/01/02 01:40:44;;;;;;;20.90;14.05;;;;;;;4.25;69.75;101104.59;1756301;82;21127;-61
2021/01/02 01:44:06;;;;;;;23.20;13.88;;;;;;;4.21;69.64;101111.46;1756278;81;21328;-61
2021/01/02 01:46:36;;;;;;;20.75;13.25;;;;;;;4.21;69.65;101111.86;1762069;80;21123;-60
2021/01/02 01:49:10;;;;;;;19.42;13.48;;;;;;;4.18;69.68;101113.98;1755452;82;21612;-61
2021/01/02 01:52:06;;;;;;;23.95;13.22;;;;;;;4.18;69.62;101119.63;1756377;82;21174;-61
2021/01/02 01:55:07;;;;;;;19.05;13.60;;;;;;;4.16;69.71;101114.37;1756048;81;21123;-60
2021/01/02 01:57:41;;;;;;;19.95;12.98;;;;;;;4.15;69.73;101119.12;1749860;82;21637;-61
2021/01/02 02:00:17;;;;;;;21.60;14.00;;;;;;;4.09;69.68;101126.36;1685795;85;21244;-60
2021/01/02 02:02:50;;;;;;;22.20;14.53;;;;;;;3.98;69.73;101129.09;1749503;82;21186;-60
2021/01/02 02:05:23;;;;;;;22.30;15.23;;;;;;;3.95;69.97;101137.73;1705813;83;21191;-60
2021/01/02 02:08:09;;;;;;;23.05;15.05;;;;;;;3.96;70.00;101141.20;1787364;80;21178;-61
2021/01/02 02:11:03;;;;;;;19.17;13.25;;;;;;;3.92;70.16;101136.73;1719966;83;21215;-60
2021/01/02 02:13:44;;;;;;;20.35;13.20;;;;;;;3.96;70.11;101138.59;1767866;80;21507;-60
2021/01/02 02:16:13;;;;;;;21.37;13.55;;;;;;;3.96;69.92;101143.80;1779135;81;21143;-60
2021/01/02 02:18:44;;;;;;;20.82;13.95;;;;;;;3.91;69.84;101141.09;1779050;80;21351;-60
2021/01/02 02:21:13;;;;;;;19.57;13.32;;;;;;;3.89;69.83;101152.28;1779050;81;21196;-60
2021/01/02 02:23:49;;;;;;;17.25;12.25;;;;;;;3.90;69.68;101154.95;1701211;84;21207;-60
2021/01/02 02:26:30;;;;;;;19.40;12.98;;;;;;;3.90;69.70;101157.95;1763849;81;21151;-62
2021/01/02 02:29:06;;;;;;;21.45;14.28;;;;;;;3.90;69.67;101161.45;1763668;81;21730;-60
2021/01/02 02:31:44;;;;;;;19.55;13.18;;;;;;;3.88;69.68;101163.14;1687887;84;21257;-61
2021/01/02 02:34:12;;;;;;;21.23;13.43;;;;;;;3.85;69.79;101161.31;1778809;80;21626;-62
2021/01/02 02:36:40;;;;;;;21.75;14.78;;;;;;;3.82;69.70;101159.05;1778878;81;21609;-60
2021/01/02 02:39:10;;;;;;;20.77;13.88;;;;;;;3.77;69.72;101164.55;1712458;84;21606;-60
2021/01/02 02:41:50;;;;;;;22.37;15.25;;;;;;;3.75;69.69;101163.63;1772057;81;21143;-60
2021/01/02 02:44:23;;;;;;;29.00;17.35;;;;;;;3.83;69.53;101169.50;1748198;82;21139;-60
2021/01/02 02:46:55;;;;;;;29.07;17.32;;;;;;;3.76;69.97;101171.46;1748096;82;21131;-62
2021/01/02 02:49:23;;;;;;;29.35;17.65;;;;;;;3.78;70.54;101174.12;1748398;81;21583;-60
2021/01/02 02:52:25;;;;;;;30.45;18.20;;;;;;;3.86;70.75;101176.09;1750785;81;21625;-62
2021/01/02 02:54:53;;;;;;;24.75;16.82;;;;;;;3.94;70.77;101176.33;1748137;82;21196;-60
2021/01/02 02:57:20;;;;;;;28.60;18.75;;;;;;;3.95;70.98;101185.91;1748031;82;21182;-61
2021/01/02 02:59:49;;;;;;;28.73;18.15;;;;;;;4.04;70.92;101183.08;1728419;82;21188;-61
2021/01/02 03:02:16;;;;;;;30.17;19.67;;;;;;;4.04;71.06;101184.38;1747944;82;21104;-60
2021/01/02 03:04:43;;;;;;;29.15;19.23;;;;;;;4.06;71.12;101189.20;1764370;81;21593;-61
2021/01/02 03:07:11;;;;;;;29.60;18.52;;;;;;;4.09;71.13;101189.30;1712203;84;21681;-61
2021/01/02 03:09:39;;;;;;;29.87;19.07;;;;;;;4.13;71.08;101188.14;1758896;80;21597;-60
2021/01/02 03:12:07;;;;;;;26.95;18.80;;;;;;;4.13;71.06;101191.15;1747364;82;21123;-62
2021/01/02 03:14:34;;;;;;;29.50;17.57;;;;;;;4.12;71.07;101187.67;1759452;81;21180;-62
2021/01/02 03:17:02;;;;;;;29.52;19.85;;;;;;;4.16;71.02;101188.63;1693802;85;21186;-62
2021/01/02 03:19:31;;;;;;;28.47;17.77;;;;;;;4.16;71.06;101187.33;1742194;81;21185;-60
2021/01/02 03:21:58;;;;;;;28.30;18.87;;;;;;;4.22;70.97;101194.41;1741098;82;21277;-61
2021/01/02 03:24:27;;;;;;;29.20;20.30;;;;;;;4.24;70.96;101197.54;1741379;82;21606;-61
2021/01/02 03:26:54;;;;;;;28.57;18.45;;;;;;;4.27;71.01;101199.33;1742009;81;21139;-60
2021/01/02 03:29:22;;;;;;;26.25;18.45;;;;;;;4.30;70.96;101198.11;1752321;81;21179;-60
2021/01/02 03:31:49;;;;;;;28.75;18.70;;;;;;;4.31;71.02;101195.97;1761548;81;21147;-60
2021/01/02 03:34:17;;;;;;;25.02;16.90;;;;;;;4.34;71.07;101197.36;1761415;81;21578;-61
2021/01/02 03:36:45;;;;;;;27.93;18.98;;;;;;;4.37;71.07;101209.61;1766232;81;21142;-61
2021/01/02 03:39:12;;;;;;;23.30;15.70;;;;;;;4.37;70.98;101211.77;1761552;81;21169;-60
2021/01/02 03:41:40;;;;;;;24.00;15.45;;;;;;;4.37;70.97;101214.81;1741268;82;21218;-62
2021/01/02 03:44:07;;;;;;;25.30;16.20;;;;;;;4.38;70.74;101220.06;1741213;82;21155;-60
2021/01/02 03:46:35;;;;;;;23.42;16.12;;;;;;;4.35;70.66;101213.45;1741884;81;21510;-62
2021/01/02 03:49:02;;;;;;;25.48;16.40;;;;;;;4.34;70.64;101219.95;1760642;81;21151;-60
2021/01/02 03:51:30;;;;;;;24.72;16.15;;;;;;;4.31;70.45;101222.94;1694043;84;21645;-60
2021/01/02 03:53:57;;;;;;;23.60;16.55;;;;;;;4.30;70.35;101230.69;1768159;81;21163;-61
2021/01/02 03:56:26;;;;;;;23.87;15.98;;;;;;;4.25;70.19;101237.50;1741273;82;21191;-62
2021/01/02 03:58:53;;;;;;;23.35;16.12;;;;;;;4.22;70.09;101244.83;1754813;81;21518;-60
2021/01/02 04:01:21;;;;;;;22.32;15.95;;;;;;;4.19;70.04;101238.66;1761349;81;21638;-60
2021/01/02 04:03:49;;;;;;;22.52;15.72;;;;;;;4.11;70.23;101248.84;1760775;81;21162;-61
2021/01/02 04:06:26;;;;;;;24.27;15.35;;;;;;;4.10;70.13;101252.29;1756454;81;21151;-62
2021/01/02 04:08:54;;;;;;;20.52;14.70;;;;;;;4.06;70.08;101256.95;1741455;82;21175;-61
2021/01/02 04:11:22;;;;;;;23.30;16.10;;;;;;;4.03;69.98;101256.45;1741157;82;21160;-60
2021/01/02 04:13:49;;;;;;;22.25;15.35;;;;;;;4.00;70.03;101260.27;1725583;81;21139;-61
2021/01/02 04:16:18;;;;;;;24.43;16.00;;;;;;;3.96;69.94;101261.02;1720168;82;21174;-61
2021/01/02 04:18:45;;;;;;;24.43;15.80;;;;;;;3.94;69.79;101259.69;1753457;82;21150;-61
2021/01/02 04:21:13;;;;;;;24.52;14.83;;;;;;;3.94;69.85;101274.41;1730842;82;21137;-60
2021/01/02 04:23:41;;;;;;;21.97;15.13;;;;;;;3.89;69.77;101284.71;1743957;82;21158;-61
2021/01/02 04:26:08;;;;;;;22.27;15.15;;;;;;;3.90;69.52;101289.09;1740550;82;21166;-61
2021/01/02 04:28:36;;;;;;;22.58;15.05;;;;;;;3.76;69.79;101291.69;1753514;82;21214;-63
2021/01/02 04:31:03;;;;;;;23.87;15.83;;;;;;;3.71;69.71;101289.82;1748886;82;21569;-61
2021/01/02 04:33:30;;;;;;;22.50;15.18;;;;;;;3.66;69.71;101289.23;1741291;82;21593;-61
2021/01/02 04:35:58;;;;;;;25.60;15.78;;;;;;;3.65;69.68;101292.66;1745186;82;21171;-61
2021/01/02 04:38:26;;;;;;;23.70;15.70;;;;;;;3.62;69.60;101296.47;1753327;82;21203;-61
2021/01/02 04:40:58;;;;;;;23.60;14.93;;;;;;;3.59;69.58;101298.55;1774924;80;21095;-61
2021/01/02 04:43:26;;;;;;;21.35;14.18;;;;;;;3.56;69.47;101303.25;1787439;80;21147;-61
2021/01/02 04:45:53;;;;;;;23.52;15.25;;;;;;;3.53;69.38;101310.97;1668743;83;21605;-61
2021/01/02 04:48:21;;;;;;;22.45;14.75;;;;;;;3.50;69.41;101321.28;1741220;82;21194;-63
2021/01/02 04:50:48;;;;;;;24.43;15.72;;;;;;;3.49;69.41;101326.45;1747403;80;21220;-61
2021/01/02 04:53:16;;;;;;;23.65;16.25;;;;;;;3.47;69.37;101326.38;1747461;82;21127;-60
2021/01/02 04:55:46;;;;;;;22.95;15.85;;;;;;;3.45;69.43;101329.35;1683396;85;21185;-61
2021/01/02 04:58:14;;;;;;;;;;;;;;;3.43;69.34;101332.32;1747822;82;21616;-60
2021/01/02 05:00:42;;;;;;;25.75;16.37;;;;;;;3.39;69.33;101339.16;1723582;83;20140;-61
2021/01/02 05:03:10;;;;;;;21.93;14.33;;;;;;;3.35;69.06;101335.09;1732440;82;21146;-61
2021/01/02 05:05:38;;;;;;;25.05;15.78;;;;;;;3.22;68.95;101339.01;1753678;82;21954;-61
2021/01/02 05:08:06;;;;;;;29.05;16.77;;;;;;;3.13;68.90;101345.66;1753368;82;21178;-61
2021/01/02 05:10:34;;;;;;;24.57;16.42;;;;;;;3.05;69.04;101343.25;1753945;82;21172;-62
2021/01/02 05:13:12;;;;;;;23.60;15.38;;;;;;;3.04;69.11;101340.17;1752213;81;21170;-61
2021/01/02 05:15:40;;;;;;;21.40;14.55;;;;;;;3.08;69.18;101341.16;1748194;82;21180;-61
2021/01/02 05:18:09;;;;;;;23.25;15.13;;;;;;;3.11;69.17;101337.36;1777703;81;21150;-61
2021/01/02 05:20:36;;;;;;;22.32;14.70;;;;;;;3.09;69.25;101338.59;1779172;81;21587;-60
2021/01/02 05:23:10;;;;;;;24.05;15.32;;;;;;;3.04;69.06;101350.58;1703035;84;21163;-60
2021/01/02 05:25:38;;;;;;;23.85;15.68;;;;;;;2.95;68.92;101352.43;1696823;84;21155;-61
2021/01/02 05:28:17;;;;;;;22.05;15.40;;;;;;;2.93;68.88;101355.83;1763756;81;21301;-61
2021/01/02 05:30:45;;;;;;;24.50;15.43;;;;;;;2.92;68.83;101356.66;1694307;84;21431;-60
2021/01/02 05:33:13;;;;;;;24.72;16.15;;;;;;;2.87;68.85;101362.97;1759452;80;21174;-60
2021/01/02 05:35:46;;;;;;;29.18;16.97;;;;;;;2.83;68.77;101365.89;1748375;82;21597;-59
2021/01/02 05:38:24;;;;;;;25.40;16.17;;;;;;;2.82;68.66;101367.16;1748140;82;21174;-60
2021/01/02 05:40:56;;;;;;;26.85;16.75;;;;;;;2.77;68.72;101368.27;1748169;82;21607;-63
2021/01/02 05:43:26;;;;;;;25.27;16.05;;;;;;;2.78;68.97;101374.38;1748360;82;21175;-60
2021/01/02 05:45:53;;;;;;;30.57;19.75;;;;;;;2.80;69.33;101379.22;1748320;82;21163;-61
2021/01/02 05:48:23;;;;;;;37.40;22.02;;;;;;;2.87;69.47;101380.31;1748128;82;21637;-61
2021/01/02 05:50:57;;;;;;;29.45;18.87;;;;;;;2.92;69.51;101384.83;1748245;82;21185;-60
2021/01/02 05:53:35;;;;;;;25.17;16.35;;;;;;;2.98;69.43;101387.65;1748427;82;21148;-62
2021/01/02 05:56:13;;;;;;;28.80;16.85;;;;;;;2.97;69.36;101389.78;1748099;82;21309;-62
2021/01/02 05:58:43;;;;;;;24.07;14.65;;;;;;;2.97;69.40;101390.21;1748296;82;21178;-60
2021/01/02 06:01:15;;;;;;;17.80;10.08;;;;;;;2.99;69.47;101389.85;1757495;81;21200;-61
2021/01/02 06:03:45;;;;;;;20.25;12.68;;;;;;;3.01;69.52;101392.09;1756593;81;21190;-60
2021/01/02 06:06:17;;;;;;;24.10;14.68;;;;;;;3.06;69.65;101390.94;1757523;81;21562;-61
2021/01/02 06:08:50;;;;;;;29.00;16.85;;;;;;;3.13;69.51;101397.70;1695675;84;21313;-61
2021/01/02 06:11:20;;;;;;;27.95;17.90;;;;;;;3.16;69.31;101400.84;1751205;81;21554;-61
2021/01/02 06:13:51;;;;;;;28.45;18.35;;;;;;;3.15;69.13;101395.56;1760189;80;21139;-61
2021/01/02 06:16:19;;;;;;;30.68;18.57;;;;;;;3.11;68.99;101401.09;1764630;80;21574;-61
2021/01/02 06:18:47;;;;;;;31.55;20.50;;;;;;;3.04;69.01;101405.20;1762467;80;21084;-60
2021/01/02 06:21:17;;;;;;;35.80;21.97;;;;;;;3.02;69.10;101403.36;1756217;82;21150;-60
2021/01/02 06:23:46;;;;;;;34.38;21.90;;;;;;;3.04;69.12;101403.00;1760371;80;21165;-62
2021/01/02 06:26:15;;;;;;;33.65;21.30;;;;;;;3.07;69.21;101401.81;1760561;80;21150;-61
2021/01/02 06:28:45;;;;;;;34.48;22.62;;;;;;;3.11;69.30;101411.50;1763584;80;21605;-60
2021/01/02 06:31:16;;;;;;;35.08;22.20;;;;;;;3.18;69.26;101412.19;1703055;83;21614;-61
2021/01/02 06:33:47;;;;;;;29.10;19.25;;;;;;;3.28;69.03;101414.68;1701391;83;21634;-61
2021/01/02 06:36:33;;;;;;;32.23;20.48;;;;;;;3.34;69.06;101417.49;1696353;83;21171;-62
2021/01/02 06:39:21;;;;;;;27.93;18.48;;;;;;;3.40;69.05;101419.01;1764641;80;21664;-62
2021/01/02 06:41:52;;;;;;;33.10;18.53;;;;;;;3.49;69.19;101425.36;1767084;80;21122;-65
2021/01/02 06:44:45;;;;;;;26.23;18.57;;;;;;;3.56;69.28;101430.81;1762916;80;21649;-65
2021/01/02 06:47:23;;;;;;;32.63;18.60;;;;;;;3.66;69.42;101434.60;1756016;82;21115;-63
2021/01/02 06:49:51;;;;;;;29.67;18.37;;;;;;;3.74;69.44;101437.88;1756302;82;21158;-63
2021/01/02 06:52:34;;;;;;;27.58;18.90;;;;;;;3.81;69.49;101436.81;1755585;80;21119;-63
2021/01/02 06:58:16;;;;;;;27.90;17.82;;;;;;;4.10;69.67;101443.39;1827717;77;22160;-64
2021/01/02 07:00:44;;;;;;;30.90;19.07;;;;;;;4.16;69.59;101443.99;1702109;83;21144;-64
2021/01/02 07:06:33;;;;;;;28.70;19.02;;;;;;;4.39;70.36;101446.44;1833407;77;22180;-62
2021/01/02 07:09:19;;;;;;;33.08;21.17;;;;;;;4.51;70.69;101455.04;1775923;80;21087;-65
2021/01/02 07:11:50;;;;;;;31.95;21.40;;;;;;;4.65;71.17;101457.61;1760210;81;21174;-65
2021/01/02 07:14:22;;;;;;;34.98;22.02;;;;;;;4.84;71.36;101462.98;1764332;80;21293;-65
2021/01/02 07:17:00;;;;;;;30.45;20.40;;;;;;;4.99;71.55;101466.44;1789151;80;21558;-66
2021/01/02 07:19:47;;;;;;;33.50;21.57;;;;;;;5.14;71.66;101468.59;1793087;80;21205;-66
2021/01/02 07:22:21;;;;;;;32.28;20.80;;;;;;;5.32;72.00;101463.38;1781325;80;21232;-66
2021/01/02 07:25:03;;;;;;;32.35;21.80;;;;;;;5.54;72.58;101466.57;1768959;80;21152;-66
2021/01/02 07:27:33;;;;;;;34.78;23.62;;;;;;;5.63;72.74;101459.84;1743918;81;21115;-68
2021/01/02 07:30:13;;;;;;;33.10;20.45;;;;;;;5.78;73.15;101466.31;1780639;80;21170;-67
2021/01/02 07:32:42;;;;;;;;;;;;;;;5.96;72.89;101471.11;1766464;80;21272;-67
2021/01/02 07:35:15;;;;;;;28.52;20.00;;;;;;;6.12;72.78;101477.61;1778610;80;20140;-67
2021/01/02 07:37:45;;;;;;;31.70;22.05;;;;;;;6.24;72.96;101473.98;1793441;80;21618;-67
2021/01/02 07:40:16;;;;;;;35.17;23.73;;;;;;;6.38;73.56;101473.42;1782621;80;21155;-67
2021/01/02 07:42:52;;;;;;;35.10;23.05;;;;;;;6.62;74.07;101475.70;1774726;80;21095;-66
2021/01/02 07:45:23;;;;;;;39.85;24.60;;;;;;;6.89;74.45;101479.73;1793229;80;21170;-67
2021/01/02 07:47:57;;;;;;;34.40;23.45;;;;;;;7.18;74.70;101476.81;1724700;83;21150;-67
2021/01/02 07:50:29;;;;;;;37.85;25.55;;;;;;;7.43;74.92;101484.70;1709878;81;21211;-64
2021/01/02 07:52:59;;;;;;;41.95;27.30;;;;;;;7.68;75.01;101489.09;1717999;82;21570;-65
2021/01/02 07:55:31;;;;;;;39.35;27.10;;;;;;;7.89;75.86;101488.98;1728588;83;21197;-64
2021/01/02 07:58:02;;;;;;;44.23;27.45;;;;;;;8.22;75.91;101485.58;1731434;82;21270;-64
2021/01/02 08:00:30;;;;;;;41.80;26.48;;;;;;;8.50;75.49;101492.14;1721395;83;21637;-65
2021/01/02 08:03:03;;;;;;;36.23;25.50;;;;;;;8.66;75.65;101494.55;1729043;81;21711;-64
2021/01/02 08:05:32;;;;;;;39.05;26.23;;;;;;;9.07;74.90;101496.81;1726552;81;21154;-65
2021/01/02 08:08:01;;;;;;;34.55;24.47;;;;;;;9.37;74.19;101498.01;1748963;80;21566;-64
2021/01/02 08:10:30;;;;;;;37.13;25.10;;;;;;;9.58;74.12;101491.64;1748781;82;21174;-63
2021/01/02 08:13:00;;;;;;;30.02;21.75;;;;;;;9.75;73.79;101486.12;1765412;81;21163;-64
2021/01/02 08:15:36;;;;;;;33.05;22.50;;;;;;;9.92;73.14;101490.20;1771698;81;21127;-63
2021/01/02 08:18:06;;;;;;;27.77;19.30;;;;;;;10.01;72.94;101487.20;1778524;81;21168;-64
2021/01/02 08:20:34;;;;;;;23.77;18.73;;;;;;;10.15;72.83;101490.83;1778557;80;21181;-65
2021/01/02 08:23:09;;;;;;;26.20;17.85;;;;;;;10.04;72.72;101493.36;1759103;81;21143;-66
2021/01/02 08:25:37;;;;;;;28.17;18.52;;;;;;;9.87;73.36;101499.80;1748281;82;21519;-65
2021/01/02 08:28:05;;;;;;;23.42;16.97;;;;;;;10.14;72.59;101500.91;1749403;81;21171;-64
2021/01/02 08:30:33;;;;;;;21.35;15.90;;;;;;;9.93;73.19;101500.30;1748711;81;21587;-65
2021/01/02 08:33:00;;;;;;;20.88;15.23;;;;;;;9.91;71.94;101500.72;1752113;80;21126;-65
2021/01/02 08:35:37;;;;;;;17.35;13.55;;;;;;;9.88;72.14;101504.19;1784676;80;21558;-64
2021/01/02 08:38:07;;;;;;;14.53;11.18;;;;;;;9.82;72.17;101506.77;1784417;80;21138;-64
2021/01/02 08:40:42;;;;;;;17.95;13.45;;;;;;;9.76;71.39;101517.22;1784837;80;21691;-64
2021/01/02 08:43:25;;;;;;;17.92;12.63;;;;;;;9.67;71.06;101515.39;1778818;80;21535;-64
2021/01/02 08:46:01;;;;;;;17.55;12.70;;;;;;;9.63;71.34;101514.50;1769996;80;21598;-63
2021/01/02 08:48:28;;;;;;;16.25;12.75;;;;;;;9.65;71.65;101510.14;1755793;80;21526;-64
2021/01/02 08:50:57;;;;;;;16.73;12.53;;;;;;;9.71;71.91;101512.38;1767636;81;21252;-64
2021/01/02 08:53:32;;;;;;;15.63;11.88;;;;;;;9.81;72.19;101521.67;1749865;81;21167;-65
2021/01/02 08:56:27;;;;;;;15.90;11.53;;;;;;;9.92;70.95;101515.64;1748104;82;21308;-66
2021/01/02 08:58:57;;;;;;;14.30;11.33;;;;;;;10.03;71.30;101519.21;1761121;81;21261;-64
2021/01/02 09:01:31;;;;;;;15.90;11.97;;;;;;;10.22;71.26;101521.55;1778998;80;21298;-64
2021/01/02 09:04:12;;;;;;;15.83;11.97;;;;;;;10.40;71.36;101524.78;1778912;81;21088;-64
2021/01/02 09:06:39;;;;;;;16.73;12.25;;;;;;;10.44;70.13;101519.54;1779036;80;21277;-64
2021/01/02 09:09:07;;;;;;;15.68;12.45;;;;;;;10.56;70.79;101515.67;1778953;81;21582;-64
2021/01/02 09:11:48;;;;;;;17.57;13.10;;;;;;;10.63;71.22;101512.63;1778925;81;21281;-64
2021/01/02 09:14:15;;;;;;;13.83;11.57;;;;;;;10.77;71.05;101514.05;1778900;80;21164;-64
2021/01/02 09:17:04;;;;;;;18.37;13.00;;;;;;;10.91;71.20;101514.98;1763850;81;21159;-64
2021/01/02 09:19:33;;;;;;;14.93;12.90;;;;;;;11.08;70.40;101512.86;1748302;82;21624;-65
2021/01/02 09:22:01;;;;;;;17.23;13.90;;;;;;;11.21;70.55;101505.45;1748362;82;21579;-64
2021/01/02 09:24:30;;;;;;;17.73;13.95;;;;;;;11.33;70.34;101508.97;1748552;82;21159;-65
2021/01/02 09:26:58;;;;;;;17.00;13.53;;;;;;;11.47;70.31;101503.30;1748068;82;21179;-65
2021/01/02 09:29:26;;;;;;;16.07;12.65;;;;;;;11.65;70.32;101505.55;1748501;81;21156;-65
2021/01/02 09:31:53;;;;;;;18.00;13.48;;;;;;;11.74;69.84;101506.84;1748164;82;21175;-64
2021/01/02 09:34:21;;;;;;;16.45;12.63;;;;;;;11.79;70.15;101502.45;1772976;81;21555;-65
2021/01/02 09:36:53;;;;;;;15.98;12.98;;;;;;;11.89;68.62;101506.00;1778926;81;21148;-64
2021/01/02 09:39:23;;;;;;;15.65;12.45;;;;;;;11.95;69.27;101505.11;1762822;81;21163;-65
2021/01/02 09:41:51;;;;;;;17.05;13.45;;;;;;;12.15;69.05;101502.50;1748155;82;21135;-63
2021/01/02 09:44:19;;;;;;;16.20;12.63;;;;;;;12.29;68.93;101495.88;1748058;82;21179;-64
2021/01/02 09:46:51;;;;;;;22.95;18.07;;;;;;;12.45;66.64;101496.72;1748313;81;21167;-64
2021/01/02 09:49:19;;;;;;;19.90;15.78;;;;;;;12.46;67.51;101495.41;1758963;81;21151;-64
2021/01/02 09:51:47;;;;;;;19.77;13.85;;;;;;;12.53;66.72;101495.41;1770732;81;21151;-64
2021/01/02 09:54:15;;;;;;;16.65;12.15;;;;;;;12.60;67.59;101494.05;1748882;81;21596;-64
2021/01/02 09:56:45;;;;;;;14.58;11.22;;;;;;;12.63;66.03;101488.77;1753672;81;21639;-64
2021/01/02 09:59:15;;;;;;;13.85;10.82;;;;;;;12.62;65.83;101484.79;1777584;81;21587;-65
2021/01/02 10:01:43;;;;;;;13.08;9.63;;;;;;;12.66;65.76;101493.14;1778991;81;21167;-65
2021/01/02 10:04:12;;;;;;;11.48;9.15;;;;;;;12.69;64.73;101483.89;1773922;81;21285;-65
2021/01/02 10:06:46;;;;;;;11.97;9.53;;;;;;;12.75;63.33;101492.26;1750426;81;21238;-66
2021/01/02 10:09:14;;;;;;;11.55;9.05;;;;;;;12.84;65.33;101500.12;1785812;80;21142;-64
2021/01/02 10:11:45;;;;;;;11.78;9.93;;;;;;;12.91;64.91;101491.75;1792694;80;21151;-64
2021/01/02 10:14:13;;;;;;;13.30;11.05;;;;;;;13.00;64.75;101482.89;1776031;80;21546;-65
2021/01/02 10:16:41;;;;;;;20.23;14.18;;;;;;;13.08;61.65;101484.61;1764423;80;21181;-66
2021/01/02 10:19:09;;;;;;;11.22;10.03;;;;;;;12.95;57.39;101488.22;1793194;80;21960;-65
2021/01/02 10:21:37;;;;;;;13.10;10.32;;;;;;;12.80;58.12;101490.48;1791410;80;21296;-66
2021/01/02 10:24:06;;;;;;;13.20;10.65;;;;;;;12.78;59.62;101491.79;1791807;80;21590;-65
2021/01/02 10:26:34;;;;;;;14.73;11.78;;;;;;;12.71;58.21;101486.09;1777626;80;21150;-65
2021/01/02 10:29:04;;;;;;;15.10;12.00;;;;;;;12.59;57.12;101490.98;1761582;81;21328;-65
2021/01/02 10:31:32;;;;;;;14.28;12.10;;;;;;;12.44;58.06;101490.58;1752832;80;21151;-65
2021/01/02 10:34:01;;;;;;;15.30;12.80;;;;;;;12.48;58.86;101485.73;1761335;80;21166;-65
2021/01/02 10:36:29;;;;;;;16.77;13.70;;;;;;;12.55;57.74;101476.47;1765904;80;21135;-64
2021/01/02 10:38:56;;;;;;;16.80;12.60;;;;;;;12.57;57.90;101479.53;1773444;80;21588;-65
2021/01/02 10:41:24;;;;;;;18.48;14.00;;;;;;;12.57;56.16;101486.59;1767015;80;21145;-66
2021/01/02 10:43:52;;;;;;;17.45;13.75;;;;;;;12.56;56.63;101484.37;1768662;80;21559;-66
2021/01/02 10:46:20;;;;;;;18.25;13.78;;;;;;;12.50;56.63;101481.75;1792804;79;21574;-66
2021/01/02 10:48:49;;;;;;;19.37;14.03;;;;;;;12.55;57.20;101475.16;1776082;80;21154;-66
2021/01/02 10:51:20;;;;;;;53.57;47.07;;;;;;;12.59;56.95;101474.23;1786156;80;21237;-66
2021/01/02 10:53:49;;;;;;;23.42;19.00;;;;;;;12.60;56.59;101478.63;1793015;79;21621;-66
2021/01/02 10:56:19;;;;;;;22.35;19.95;;;;;;;12.62;56.58;101483.47;1792880;80;21329;-66
2021/01/02 10:58:48;;;;;;;17.80;15.45;;;;;;;12.63;56.11;101479.95;1788751;80;21261;-64
2021/01/02 11:01:18;;;;;;;17.27;14.63;;;;;;;12.67;55.80;101479.05;1739753;80;21581;-65
2021/01/02 11:03:46;;;;;;;21.68;15.70;;;;;;;12.67;56.02;101473.77;1792521;80;21661;-67
2021/01/02 11:06:15;;;;;;;20.20;14.58;;;;;;;12.68;55.66;101475.53;1792768;80;21800;-65
2021/01/02 11:08:45;;;;;;;19.55;14.25;;;;;;;12.63;54.24;101474.23;1776563;80;21135;-65
2021/01/02 11:11:21;;;;;;;16.97;12.35;;;;;;;12.62;54.66;101475.13;1753387;80;21625;-65
2021/01/02 11:13:48;;;;;;;16.45;12.63;;;;;;;12.61;55.02;101470.72;1786236;80;21186;-66
2021/01/02 11:16:16;;;;;;;17.05;13.45;;;;;;;12.63;54.62;101471.59;1780720;80;21538;-66
2021/01/02 11:18:44;;;;;;;16.35;13.25;;;;;;;12.70;55.05;101473.77;1786265;80;21582;-65
2021/01/02 11:21:13;;;;;;;16.85;12.98;;;;;;;12.82;55.06;101474.15;1787586;80;21114;-65
2021/01/02 11:23:41;;;;;;;16.00;13.13;;;;;;;12.94;55.61;101470.60;1761433;81;21131;-65
2021/01/02 11:26:09;;;;;;;16.35;12.78;;;;;;;12.93;54.93;101472.80;1768066;80;21538;-66
2021/01/02 11:28:37;;;;;;;14.13;11.38;;;;;;;12.93;54.89;101474.13;1763748;80;21257;-65
2021/01/02 11:31:05;;;;;;;13.20;9.38;;;;;;;13.03;54.82;101470.98;1761919;80;21135;-66
2021/01/02 11:33:32;;;;;;;11.18;8.15;;;;;;;13.03;53.92;101470.53;1761294;81;21154;-66
2021/01/02 11:36:00;;;;;;;11.55;8.15;;;;;;;13.04;53.57;101473.61;1766530;80;21581;-65
2021/01/02 11:38:28;;;;;;;12.00;9.20;;;;;;;13.00;53.73;101473.22;1761659;81;21139;-66
2021/01/02 11:40:55;;;;;;;8.83;6.58;;;;;;;13.00;52.99;101480.25;1762339;80;21127;-65
2021/01/02 11:43:23;;;;;;;9.00;6.95;;;;;;;12.97;52.75;101479.84;1761355;81;21181;-64
2021/01/02 11:45:51;;;;;;;9.70;6.75;;;;;;;12.97;52.62;101477.20;1778454;80;21322;-65
2021/01/02 11:48:19;;;;;;;9.38;6.33;;;;;;;12.95;53.13;101480.28;1776190;78;21165;-66